sensor_id;sensor_type;location;lat;lon;timestamp;temperature;humidity
2463;DHT22;1243;54.298;10.172;2023-04-03T00:02:00;0.30;1.00
2463;DHT22;1243;54.298;10.172;2023-04-03T00:04:26;0.30;1.00
2463;DHT22;1243;54.298;10.172;2023-04-03T00:06:55;0.20;1.00
2463;DHT22;1243;54.298;10.172;2023-04-03T00:09:21;0.20;1.00
2463;DHT22;1243;54.298;10.172;2023-04-03T00:12:03;0.20;1.00
2463;DHT22;1243;54.298;10.172;2023-04-03T00:14:29;0.20;1.00
2463;DHT22;1243;54.298;10.172;2023-04-03T00:17:15;0.20;1.00
2463;DHT22;1243;54.298;10.172;2023-04-03T00:19:41;0.20;1.00
2463;DHT22;1243;54.298;10.172;2023-04-03T00:22:13;0.20;1.00
2463;DHT22;1243;54.298;10.172;2023-04-03T00:24:39;0.20;1.00
2463;DHT22;1243;54.298;10.172;2023-04-03T00:27:06;0.20;1.00
2463;DHT22;1243;54.298;10.172;2023-04-03T00:29:31;0.20;1.00
2463;DHT22;1243;54.298;10.172;2023-04-03T00:31:57;0.30;1.00
2463;DHT22;1243;54.298;10.172;2023-04-03T00:34:23;0.30;1.00
2463;DHT22;1243;54.298;10.172;2023-04-03T00:36:52;0.20;1.00
2463;DHT22;1243;54.298;10.172;2023-04-03T00:39:18;0.20;1.00
2463;DHT22;1243;54.298;10.172;2023-04-03T00:41:44;0.20;1.00
2463;DHT22;1243;54.298;10.172;2023-04-03T00:46:55;0.20;1.00
2463;DHT22;1243;54.298;10.172;2023-04-03T00:49:24;0.20;1.00
2463;DHT22;1243;54.298;10.172;2023-04-03T00:51:50;0.10;1.00
2463;DHT22;1243;54.298;10.172;2023-04-03T00:54:16;0.10;1.00
2463;DHT22;1243;54.298;10.172;2023-04-03T01:03:37;0.10;1.00
2463;DHT22;1243;54.298;10.172;2023-04-03T01:06:06;0.00;1.00
2463;DHT22;1243;54.298;10.172;2023-04-03T01:08:33;0.00;1.00
2463;DHT22;1243;54.298;10.172;2023-04-03T01:11:05;0.00;1.00
2463;DHT22;1243;54.298;10.172;2023-04-03T01:13:32;0.00;1.00
2463;DHT22;1243;54.298;10.172;2023-04-03T01:16:01;-0.10;1.00
2463;DHT22;1243;54.298;10.172;2023-04-03T01:18:32;-0.10;1.00
2463;DHT22;1243;54.298;10.172;2023-04-03T01:26:32;-0.10;1.00
2463;DHT22;1243;54.298;10.172;2023-04-03T01:28:59;-0.20;1.00
2463;DHT22;1243;54.298;10.172;2023-04-03T01:31:27;-0.20;1.00
2463;DHT22;1243;54.298;10.172;2023-04-03T01:33:54;-0.20;1.00
2463;DHT22;1243;54.298;10.172;2023-04-03T01:36:25;-0.20;1.00
2463;DHT22;1243;54.298;10.172;2023-04-03T01:38:54;-0.20;1.00
2463;DHT22;1243;54.298;10.172;2023-04-03T01:41:21;-0.30;1.00
2463;DHT22;1243;54.298;10.172;2023-04-03T01:43:48;-0.30;1.00
2463;DHT22;1243;54.298;10.172;2023-04-03T01:46:18;-0.30;1.00
2463;DHT22;1243;54.298;10.172;2023-04-03T01:48:44;-0.30;1.00
2463;DHT22;1243;54.298;10.172;2023-04-03T01:51:11;-0.30;1.00
2463;DHT22;1243;54.298;10.172;2023-04-03T01:56:33;-0.30;1.00
2463;DHT22;1243;54.298;10.172;2023-04-03T02:02:27;-0.40;1.00
2463;DHT22;1243;54.298;10.172;2023-04-03T02:04:56;-0.30;1.00
2463;DHT22;1243;54.298;10.172;2023-04-03T02:07:22;-0.30;1.00
2463;DHT22;1243;54.298;10.172;2023-04-03T02:09:48;-0.40;1.00
2463;DHT22;1243;54.298;10.172;2023-04-03T02:12:16;-0.40;1.00
2463;DHT22;1243;54.298;10.172;2023-04-03T02:14:42;-0.40;1.00
2463;DHT22;1243;54.298;10.172;2023-04-03T02:17:19;-0.50;1.00
2463;DHT22;1243;54.298;10.172;2023-04-03T02:19:45;-0.50;1.00
2463;DHT22;1243;54.298;10.172;2023-04-03T02:22:13;-0.50;1.00
2463;DHT22;1243;54.298;10.172;2023-04-03T02:24:39;-0.50;1.00
2463;DHT22;1243;54.298;10.172;2023-04-03T02:27:06;-0.50;1.00
2463;DHT22;1243;54.298;10.172;2023-04-03T02:29:32;-0.50;1.00
2463;DHT22;1243;54.298;10.172;2023-04-03T02:31:58;-0.50;1.00
2463;DHT22;1243;54.298;10.172;2023-04-03T02:34:24;-0.50;1.00
2463;DHT22;1243;54.298;10.172;2023-04-03T02:36:50;-0.60;1.00
2463;DHT22;1243;54.298;10.172;2023-04-03T02:39:16;-0.60;1.00
2463;DHT22;1243;54.298;10.172;2023-04-03T02:41:42;-0.60;1.00
2463;DHT22;1243;54.298;10.172;2023-04-03T02:44:12;-0.60;1.00
2463;DHT22;1243;54.298;10.172;2023-04-03T02:46:38;-0.60;1.00
2463;DHT22;1243;54.298;10.172;2023-04-03T02:49:05;-0.60;1.00
2463;DHT22;1243;54.298;10.172;2023-04-03T02:51:31;-0.60;1.00
2463;DHT22;1243;54.298;10.172;2023-04-03T02:54:00;-0.60;1.00
2463;DHT22;1243;54.298;10.172;2023-04-03T02:56:26;-0.60;1.00
2463;DHT22;1243;54.298;10.172;2023-04-03T02:58:52;-0.60;1.00
2463;DHT22;1243;54.298;10.172;2023-04-03T03:01:22;-0.70;1.00
2463;DHT22;1243;54.298;10.172;2023-04-03T03:03:48;-0.70;1.00
2463;DHT22;1243;54.298;10.172;2023-04-03T03:06:16;-0.60;1.00
2463;DHT22;1243;54.298;10.172;2023-04-03T03:08:45;-0.60;1.00
2463;DHT22;1243;54.298;10.172;2023-04-03T03:11:14;-0.70;1.00
2463;DHT22;1243;54.298;10.172;2023-04-03T03:13:41;-0.70;1.00
2463;DHT22;1243;54.298;10.172;2023-04-03T03:16:07;-0.70;1.00
2463;DHT22;1243;54.298;10.172;2023-04-03T03:18:42;-0.70;1.00
2463;DHT22;1243;54.298;10.172;2023-04-03T03:21:09;-0.70;1.00
2463;DHT22;1243;54.298;10.172;2023-04-03T03:23:39;-0.70;1.00
2463;DHT22;1243;54.298;10.172;2023-04-03T03:26:07;-0.70;1.00
2463;DHT22;1243;54.298;10.172;2023-04-03T03:28:38;-0.70;1.00
2463;DHT22;1243;54.298;10.172;2023-04-03T03:31:05;-0.70;1.00
2463;DHT22;1243;54.298;10.172;2023-04-03T03:33:51;-0.70;1.00
2463;DHT22;1243;54.298;10.172;2023-04-03T03:36:17;-0.70;1.00
2463;DHT22;1243;54.298;10.172;2023-04-03T03:38:58;-0.70;1.00
2463;DHT22;1243;54.298;10.172;2023-04-03T03:41:24;-0.70;1.00
2463;DHT22;1243;54.298;10.172;2023-04-03T03:43:50;-0.70;1.00
2463;DHT22;1243;54.298;10.172;2023-04-03T03:46:16;-0.70;1.00
2463;DHT22;1243;54.298;10.172;2023-04-03T03:48:42;-0.80;1.00
2463;DHT22;1243;54.298;10.172;2023-04-03T03:54:13;-0.90;1.00
2463;DHT22;1243;54.298;10.172;2023-04-03T03:56:39;-0.90;1.00
2463;DHT22;1243;54.298;10.172;2023-04-03T03:59:05;-0.90;1.00
2463;DHT22;1243;54.298;10.172;2023-04-03T04:01:32;-0.90;1.00
2463;DHT22;1243;54.298;10.172;2023-04-03T04:07:12;-1.00;1.00
2463;DHT22;1243;54.298;10.172;2023-04-03T04:09:38;-1.10;1.00
2463;DHT22;1243;54.298;10.172;2023-04-03T04:12:04;-1.10;1.00
2463;DHT22;1243;54.298;10.172;2023-04-03T04:14:30;-1.10;1.00
2463;DHT22;1243;54.298;10.172;2023-04-03T04:16:56;-1.10;1.00
2463;DHT22;1243;54.298;10.172;2023-04-03T04:19:25;-1.20;1.00
2463;DHT22;1243;54.298;10.172;2023-04-03T04:21:54;-1.20;1.00
2463;DHT22;1243;54.298;10.172;2023-04-03T04:24:20;-1.20;1.00
2463;DHT22;1243;54.298;10.172;2023-04-03T04:26:46;-1.20;1.00
2463;DHT22;1243;54.298;10.172;2023-04-03T04:29:48;-1.20;1.00
2463;DHT22;1243;54.298;10.172;2023-04-03T04:38:53;-1.20;1.00
2463;DHT22;1243;54.298;10.172;2023-04-03T04:41:21;-1.30;1.00
2463;DHT22;1243;54.298;10.172;2023-04-03T04:43:51;-1.30;1.00
2463;DHT22;1243;54.298;10.172;2023-04-03T04:46:18;-1.30;1.00
2463;DHT22;1243;54.298;10.172;2023-04-03T04:48:44;-1.20;1.00
2463;DHT22;1243;54.298;10.172;2023-04-03T04:51:10;-1.20;1.00
2463;DHT22;1243;54.298;10.172;2023-04-03T04:53:37;-1.20;1.00
2463;DHT22;1243;54.298;10.172;2023-04-03T04:56:03;-1.30;1.00
2463;DHT22;1243;54.298;10.172;2023-04-03T04:58:29;-1.30;1.00
2463;DHT22;1243;54.298;10.172;2023-04-03T05:01:05;-1.30;1.00
2463;DHT22;1243;54.298;10.172;2023-04-03T05:03:31;-1.30;1.00
2463;DHT22;1243;54.298;10.172;2023-04-03T05:05:57;-1.20;1.00
2463;DHT22;1243;54.298;10.172;2023-04-03T05:08:23;-1.20;1.00
2463;DHT22;1243;54.298;10.172;2023-04-03T05:10:49;-1.10;1.00
2463;DHT22;1243;54.298;10.172;2023-04-03T05:13:15;-1.10;1.00
2463;DHT22;1243;54.298;10.172;2023-04-03T05:15:41;-1.10;1.00
2463;DHT22;1243;54.298;10.172;2023-04-03T05:18:07;-1.10;1.00
2463;DHT22;1243;54.298;10.172;2023-04-03T05:20:33;-1.20;1.00
2463;DHT22;1243;54.298;10.172;2023-04-03T05:22:59;-1.10;1.00
2463;DHT22;1243;54.298;10.172;2023-04-03T05:25:25;-1.10;1.00
2463;DHT22;1243;54.298;10.172;2023-04-03T05:27:50;-1.10;1.00
2463;DHT22;1243;54.298;10.172;2023-04-03T05:30:17;-1.10;1.00
2463;DHT22;1243;54.298;10.172;2023-04-03T05:32:43;-1.10;1.00
2463;DHT22;1243;54.298;10.172;2023-04-03T05:35:09;-1.10;1.00
2463;DHT22;1243;54.298;10.172;2023-04-03T05:37:35;-1.00;1.00
2463;DHT22;1243;54.298;10.172;2023-04-03T05:40:03;-1.00;1.00
2463;DHT22;1243;54.298;10.172;2023-04-03T05:42:28;-1.00;1.00
2463;DHT22;1243;54.298;10.172;2023-04-03T05:44:55;-1.00;1.00
2463;DHT22;1243;54.298;10.172;2023-04-03T05:47:20;-0.90;1.00
2463;DHT22;1243;54.298;10.172;2023-04-03T05:49:46;-0.90;1.70
2463;DHT22;1243;54.298;10.172;2023-04-03T05:52:28;-0.90;1.00
2463;DHT22;1243;54.298;10.172;2023-04-03T05:54:55;-0.90;3.50
2463;DHT22;1243;54.298;10.172;2023-04-03T05:57:21;-0.80;6.10
2463;DHT22;1243;54.298;10.172;2023-04-03T05:59:47;-0.80;9.00
2463;DHT22;1243;54.298;10.172;2023-04-03T06:02:18;-0.80;12.00
2463;DHT22;1243;54.298;10.172;2023-04-03T06:04:45;-0.70;14.60
2463;DHT22;1243;54.298;10.172;2023-04-03T06:07:19;-0.60;18.80
2463;DHT22;1243;54.298;10.172;2023-04-03T06:09:48;-0.60;22.70
2463;DHT22;1243;54.298;10.172;2023-04-03T06:12:14;-0.60;27.00
2463;DHT22;1243;54.298;10.172;2023-04-03T06:14:40;-0.50;32.00
2463;DHT22;1243;54.298;10.172;2023-04-03T06:17:06;-0.50;39.30
2463;DHT22;1243;54.298;10.172;2023-04-03T06:19:32;-0.40;44.00
2463;DHT22;1243;54.298;10.172;2023-04-03T06:21:58;-0.40;55.40
2463;DHT22;1243;54.298;10.172;2023-04-03T06:24:24;-0.30;60.10
2463;DHT22;1243;54.298;10.172;2023-04-03T06:26:50;-0.20;64.70
2463;DHT22;1243;54.298;10.172;2023-04-03T06:29:18;-0.20;71.00
2463;DHT22;1243;54.298;10.172;2023-04-03T06:31:44;-0.10;82.00
2463;DHT22;1243;54.298;10.172;2023-04-03T06:34:10;0.00;87.80
2463;DHT22;1243;54.298;10.172;2023-04-03T06:36:37;0.00;87.80
2463;DHT22;1243;54.298;10.172;2023-04-03T06:39:03;0.10;87.80
2463;DHT22;1243;54.298;10.172;2023-04-03T06:41:28;0.20;87.90
2463;DHT22;1243;54.298;10.172;2023-04-03T06:43:54;0.30;88.00
2463;DHT22;1243;54.298;10.172;2023-04-03T06:46:22;0.40;88.60
2463;DHT22;1243;54.298;10.172;2023-04-03T06:48:49;0.40;93.80
2463;DHT22;1243;54.298;10.172;2023-04-03T06:51:18;0.40;95.90
2463;DHT22;1243;54.298;10.172;2023-04-03T06:53:46;0.50;98.10
2463;DHT22;1243;54.298;10.172;2023-04-03T06:56:12;0.60;99.90
2463;DHT22;1243;54.298;10.172;2023-04-03T06:58:38;0.70;99.90
2463;DHT22;1243;54.298;10.172;2023-04-03T07:01:04;0.70;99.90
2463;DHT22;1243;54.298;10.172;2023-04-03T07:03:30;0.80;99.90
2463;DHT22;1243;54.298;10.172;2023-04-03T07:05:55;0.90;99.90
2463;DHT22;1243;54.298;10.172;2023-04-03T07:08:21;0.90;99.90
2463;DHT22;1243;54.298;10.172;2023-04-03T07:10:48;1.00;99.90
2463;DHT22;1243;54.298;10.172;2023-04-03T07:13:15;1.10;99.90
2463;DHT22;1243;54.298;10.172;2023-04-03T07:15:41;1.20;99.90
2463;DHT22;1243;54.298;10.172;2023-04-03T07:18:06;1.30;99.90
2463;DHT22;1243;54.298;10.172;2023-04-03T07:20:32;1.40;99.90
2463;DHT22;1243;54.298;10.172;2023-04-03T07:22:58;1.60;99.90
2463;DHT22;1243;54.298;10.172;2023-04-03T07:25:24;1.80;99.90
2463;DHT22;1243;54.298;10.172;2023-04-03T07:27:49;2.00;99.90
2463;DHT22;1243;54.298;10.172;2023-04-03T07:30:15;2.30;99.90
2463;DHT22;1243;54.298;10.172;2023-04-03T07:32:41;2.60;99.90
2463;DHT22;1243;54.298;10.172;2023-04-03T07:35:07;2.70;99.90
2463;DHT22;1243;54.298;10.172;2023-04-03T07:37:33;2.90;99.90
2463;DHT22;1243;54.298;10.172;2023-04-03T07:39:58;3.00;99.90
2463;DHT22;1243;54.298;10.172;2023-04-03T07:42:25;3.10;99.90
2463;DHT22;1243;54.298;10.172;2023-04-03T07:44:53;3.20;99.90
2463;DHT22;1243;54.298;10.172;2023-04-03T07:47:19;3.30;99.90
2463;DHT22;1243;54.298;10.172;2023-04-03T07:49:46;3.40;99.90
2463;DHT22;1243;54.298;10.172;2023-04-03T07:52:12;3.70;90.20
2463;DHT22;1243;54.298;10.172;2023-04-03T07:54:40;3.80;58.90
2463;DHT22;1243;54.298;10.172;2023-04-03T07:57:05;4.10;24.90
2463;DHT22;1243;54.298;10.172;2023-04-03T07:59:32;4.30;1.00
2463;DHT22;1243;54.298;10.172;2023-04-03T08:01:57;4.40;1.00
2463;DHT22;1243;54.298;10.172;2023-04-03T08:04:23;4.40;1.00
2463;DHT22;1243;54.298;10.172;2023-04-03T08:06:50;4.50;1.00
2463;DHT22;1243;54.298;10.172;2023-04-03T08:09:16;4.70;1.00
2463;DHT22;1243;54.298;10.172;2023-04-03T08:11:42;4.70;1.00
2463;DHT22;1243;54.298;10.172;2023-04-03T08:14:08;4.80;1.00
2463;DHT22;1243;54.298;10.172;2023-04-03T08:16:40;4.90;1.00
2463;DHT22;1243;54.298;10.172;2023-04-03T08:19:06;5.00;1.00
2463;DHT22;1243;54.298;10.172;2023-04-03T08:21:33;5.10;1.00
2463;DHT22;1243;54.298;10.172;2023-04-03T08:23:58;5.20;1.00
2463;DHT22;1243;54.298;10.172;2023-04-03T08:26:24;5.30;1.00
2463;DHT22;1243;54.298;10.172;2023-04-03T08:28:52;5.40;1.00
2463;DHT22;1243;54.298;10.172;2023-04-03T08:31:19;5.40;1.00
2463;DHT22;1243;54.298;10.172;2023-04-03T08:33:45;5.50;1.00
2463;DHT22;1243;54.298;10.172;2023-04-03T08:36:29;5.60;1.00
2463;DHT22;1243;54.298;10.172;2023-04-03T08:38:56;5.80;1.00
2463;DHT22;1243;54.298;10.172;2023-04-03T08:49:26;6.20;1.00
2463;DHT22;1243;54.298;10.172;2023-04-03T08:51:56;6.30;1.00
2463;DHT22;1243;54.298;10.172;2023-04-03T08:54:34;6.60;1.00
2463;DHT22;1243;54.298;10.172;2023-04-03T08:57:03;6.90;1.00
2463;DHT22;1243;54.298;10.172;2023-04-03T08:59:34;7.10;1.00
2463;DHT22;1243;54.298;10.172;2023-04-03T09:02:04;7.20;1.00
2463;DHT22;1243;54.298;10.172;2023-04-03T09:04:37;7.40;1.00
2463;DHT22;1243;54.298;10.172;2023-04-03T09:07:20;7.70;1.00
2463;DHT22;1243;54.298;10.172;2023-04-03T09:09:48;7.90;1.00
2463;DHT22;1243;54.298;10.172;2023-04-03T09:12:27;7.90;1.00
2463;DHT22;1243;54.298;10.172;2023-04-03T09:15:29;8.00;1.00
2463;DHT22;1243;54.298;10.172;2023-04-03T09:18:04;8.20;1.00
2463;DHT22;1243;54.298;10.172;2023-04-03T09:20:45;8.30;1.00
2463;DHT22;1243;54.298;10.172;2023-04-03T09:29:26;9.60;1.00
2463;DHT22;1243;54.298;10.172;2023-04-03T09:35:18;10.00;1.00
2463;DHT22;1243;54.298;10.172;2023-04-03T09:37:47;9.70;1.00
2463;DHT22;1243;54.298;10.172;2023-04-03T09:40:43;9.20;1.00
2463;DHT22;1243;54.298;10.172;2023-04-03T09:43:29;8.80;1.00
2463;DHT22;1243;54.298;10.172;2023-04-03T09:48:56;8.80;1.00
2463;DHT22;1243;54.298;10.172;2023-04-03T09:51:26;8.40;1.00
2463;DHT22;1243;54.298;10.172;2023-04-03T09:53:53;8.00;1.00
2463;DHT22;1243;54.298;10.172;2023-04-03T10:01:28;9.30;1.00
2463;DHT22;1243;54.298;10.172;2023-04-03T10:04:12;10.10;1.00
2463;DHT22;1243;54.298;10.172;2023-04-03T10:09:31;10.00;1.00
2463;DHT22;1243;54.298;10.172;2023-04-03T10:12:05;10.30;1.00
2463;DHT22;1243;54.298;10.172;2023-04-03T10:17:42;10.80;1.00
2463;DHT22;1243;54.298;10.172;2023-04-03T10:20:39;11.20;1.00
2463;DHT22;1243;54.298;10.172;2023-04-03T10:23:28;11.20;1.00
2463;DHT22;1243;54.298;10.172;2023-04-03T10:28:47;12.00;1.00
2463;DHT22;1243;54.298;10.172;2023-04-03T10:34:28;11.60;1.00
2463;DHT22;1243;54.298;10.172;2023-04-03T10:39:54;11.70;1.00
2463;DHT22;1243;54.298;10.172;2023-04-03T10:46:00;12.00;1.00
2463;DHT22;1243;54.298;10.172;2023-04-03T10:58:49;10.10;99.90
2463;DHT22;1243;54.298;10.172;2023-04-03T11:01:29;9.70;99.90
2463;DHT22;1243;54.298;10.172;2023-04-03T11:03:59;9.20;99.90
2463;DHT22;1243;54.298;10.172;2023-04-03T11:06:34;8.70;99.90
2463;DHT22;1243;54.298;10.172;2023-04-03T11:09:22;8.50;99.90
2463;DHT22;1243;54.298;10.172;2023-04-03T11:11:53;8.50;99.90
2463;DHT22;1243;54.298;10.172;2023-04-03T11:14:27;8.50;99.90
2463;DHT22;1243;54.298;10.172;2023-04-03T11:17:15;8.50;99.90
2463;DHT22;1243;54.298;10.172;2023-04-03T11:19:50;8.30;99.90
2463;DHT22;1243;54.298;10.172;2023-04-03T11:28:23;9.50;99.90
2463;DHT22;1243;54.298;10.172;2023-04-03T11:36:08;12.90;1.00
2463;DHT22;1243;54.298;10.172;2023-04-03T11:38:38;12.50;99.90
2463;DHT22;1243;54.298;10.172;2023-04-03T11:41:08;12.90;99.90
2463;DHT22;1243;54.298;10.172;2023-04-03T12:11:21;9.60;99.90
2463;DHT22;1243;54.298;10.172;2023-04-03T12:21:16;10.40;99.90
2463;DHT22;1243;54.298;10.172;2023-04-03T12:39:55;12.30;99.90
2463;DHT22;1243;54.298;10.172;2023-04-03T12:45:23;12.30;99.90
2463;DHT22;1243;54.298;10.172;2023-04-03T12:47:52;12.30;99.90
2463;DHT22;1243;54.298;10.172;2023-04-03T12:50:34;12.50;99.90
2463;DHT22;1243;54.298;10.172;2023-04-03T12:55:30;13.80;99.90
2463;DHT22;1243;54.298;10.172;2023-04-03T12:57:56;14.80;99.90
2463;DHT22;1243;54.298;10.172;2023-04-03T13:00:35;14.60;99.90
2463;DHT22;1243;54.298;10.172;2023-04-03T13:03:05;14.40;99.90
2463;DHT22;1243;54.298;10.172;2023-04-03T13:05:32;15.10;99.90
2463;DHT22;1243;54.298;10.172;2023-04-03T13:08:01;16.00;99.90
2463;DHT22;1243;54.298;10.172;2023-04-03T13:10:32;16.10;99.90
2463;DHT22;1243;54.298;10.172;2023-04-03T13:13:10;16.30;99.90
2463;DHT22;1243;54.298;10.172;2023-04-03T13:15:44;15.00;99.90
2463;DHT22;1243;54.298;10.172;2023-04-03T13:18:23;14.50;99.90
2463;DHT22;1243;54.298;10.172;2023-04-03T13:20:51;14.30;99.90
2463;DHT22;1243;54.298;10.172;2023-04-03T13:23:17;14.10;99.90
2463;DHT22;1243;54.298;10.172;2023-04-03T13:25:47;14.00;99.90
2463;DHT22;1243;54.298;10.172;2023-04-03T13:28:31;14.20;99.90
2463;DHT22;1243;54.298;10.172;2023-04-03T13:31:17;14.00;99.90
2463;DHT22;1243;54.298;10.172;2023-04-03T13:33:59;14.00;99.90
2463;DHT22;1243;54.298;10.172;2023-04-03T13:36:34;13.60;99.90
2463;DHT22;1243;54.298;10.172;2023-04-03T13:41:52;14.80;99.90
2463;DHT22;1243;54.298;10.172;2023-04-03T13:44:42;15.20;99.90
2463;DHT22;1243;54.298;10.172;2023-04-03T13:47:15;15.50;99.90
2463;DHT22;1243;54.298;10.172;2023-04-03T13:49:44;14.40;99.90
2463;DHT22;1243;54.298;10.172;2023-04-03T13:52:29;13.00;99.90
2463;DHT22;1243;54.298;10.172;2023-04-03T13:55:03;12.20;99.90
2463;DHT22;1243;54.298;10.172;2023-04-03T13:57:29;11.60;99.90
2463;DHT22;1243;54.298;10.172;2023-04-03T13:59:55;11.10;99.90
2463;DHT22;1243;54.298;10.172;2023-04-03T14:05:30;12.10;99.90
2463;DHT22;1243;54.298;10.172;2023-04-03T14:08:14;13.00;99.90
2463;DHT22;1243;54.298;10.172;2023-04-03T14:10:40;14.20;99.90
2463;DHT22;1243;54.298;10.172;2023-04-03T14:13:06;15.20;99.90
2463;DHT22;1243;54.298;10.172;2023-04-03T14:15:35;15.60;99.90
2463;DHT22;1243;54.298;10.172;2023-04-03T14:18:01;15.60;99.90
2463;DHT22;1243;54.298;10.172;2023-04-03T14:20:27;14.50;99.90
2463;DHT22;1243;54.298;10.172;2023-04-03T14:22:54;14.20;99.90
2463;DHT22;1243;54.298;10.172;2023-04-03T14:25:40;14.50;99.90
2463;DHT22;1243;54.298;10.172;2023-04-03T14:28:18;15.20;99.90
2463;DHT22;1243;54.298;10.172;2023-04-03T14:33:56;15.40;99.90
2463;DHT22;1243;54.298;10.172;2023-04-03T14:36:27;15.70;99.90
2463;DHT22;1243;54.298;10.172;2023-04-03T14:38:53;15.80;99.90
2463;DHT22;1243;54.298;10.172;2023-04-03T14:41:22;15.70;99.90
2463;DHT22;1243;54.298;10.172;2023-04-03T14:43:53;15.70;99.90
2463;DHT22;1243;54.298;10.172;2023-04-03T14:46:42;15.40;99.90
2463;DHT22;1243;54.298;10.172;2023-04-03T14:49:27;15.10;99.90
2463;DHT22;1243;54.298;10.172;2023-04-03T14:51:55;14.90;99.90
2463;DHT22;1243;54.298;10.172;2023-04-03T14:54:24;14.50;99.90
2463;DHT22;1243;54.298;10.172;2023-04-03T14:56:55;13.70;99.90
2463;DHT22;1243;54.298;10.172;2023-04-03T14:59:22;12.80;99.90
2463;DHT22;1243;54.298;10.172;2023-04-03T15:01:48;11.90;99.90
2463;DHT22;1243;54.298;10.172;2023-04-03T15:04:23;11.30;99.90
2463;DHT22;1243;54.298;10.172;2023-04-03T15:10:20;12.30;99.90
2463;DHT22;1243;54.298;10.172;2023-04-03T15:12:47;12.50;99.90
2463;DHT22;1243;54.298;10.172;2023-04-03T15:15:21;12.80;99.90
2463;DHT22;1243;54.298;10.172;2023-04-03T15:17:51;13.00;99.90
2463;DHT22;1243;54.298;10.172;2023-04-03T15:20:22;13.00;99.90
2463;DHT22;1243;54.298;10.172;2023-04-03T15:22:48;12.10;99.90
2463;DHT22;1243;54.298;10.172;2023-04-03T15:25:14;11.10;99.90
2463;DHT22;1243;54.298;10.172;2023-04-03T15:27:41;10.70;99.90
2463;DHT22;1243;54.298;10.172;2023-04-03T15:30:10;10.40;99.90
2463;DHT22;1243;54.298;10.172;2023-04-03T15:32:36;9.90;99.90
2463;DHT22;1243;54.298;10.172;2023-04-03T15:35:02;9.90;99.90
2463;DHT22;1243;54.298;10.172;2023-04-03T15:37:28;9.50;99.90
2463;DHT22;1243;54.298;10.172;2023-04-03T15:39:54;9.30;99.90
2463;DHT22;1243;54.298;10.172;2023-04-03T15:42:20;9.60;99.90
2463;DHT22;1243;54.298;10.172;2023-04-03T15:44:46;9.80;99.90
2463;DHT22;1243;54.298;10.172;2023-04-03T15:47:12;9.80;99.90
2463;DHT22;1243;54.298;10.172;2023-04-03T15:49:38;9.80;99.90
2463;DHT22;1243;54.298;10.172;2023-04-03T15:52:04;9.80;99.90
2463;DHT22;1243;54.298;10.172;2023-04-03T15:54:30;9.70;99.90
2463;DHT22;1243;54.298;10.172;2023-04-03T15:56:55;9.60;99.90
2463;DHT22;1243;54.298;10.172;2023-04-03T15:59:21;9.50;99.90
2463;DHT22;1243;54.298;10.172;2023-04-03T16:01:48;9.00;99.90
2463;DHT22;1243;54.298;10.172;2023-04-03T16:04:14;8.90;99.90
2463;DHT22;1243;54.298;10.172;2023-04-03T16:06:41;8.90;99.90
2463;DHT22;1243;54.298;10.172;2023-04-03T16:09:07;8.90;99.90
2463;DHT22;1243;54.298;10.172;2023-04-03T16:11:33;8.70;99.90
2463;DHT22;1243;54.298;10.172;2023-04-03T16:14:01;8.60;99.90
2463;DHT22;1243;54.298;10.172;2023-04-03T16:16:27;8.40;99.90
2463;DHT22;1243;54.298;10.172;2023-04-03T16:18:54;8.50;99.90
2463;DHT22;1243;54.298;10.172;2023-04-03T16:21:20;8.40;99.90
2463;DHT22;1243;54.298;10.172;2023-04-03T16:23:46;8.50;99.90
2463;DHT22;1243;54.298;10.172;2023-04-03T16:26:12;8.30;99.90
2463;DHT22;1243;54.298;10.172;2023-04-03T16:28:38;8.00;99.90
2463;DHT22;1243;54.298;10.172;2023-04-03T16:31:05;7.50;99.90
2463;DHT22;1243;54.298;10.172;2023-04-03T16:33:32;7.20;99.90
2463;DHT22;1243;54.298;10.172;2023-04-03T16:35:58;7.00;99.90
2463;DHT22;1243;54.298;10.172;2023-04-03T16:38:25;6.80;99.90
2463;DHT22;1243;54.298;10.172;2023-04-03T16:40:50;6.60;99.90
2463;DHT22;1243;54.298;10.172;2023-04-03T16:43:18;6.70;99.90
2463;DHT22;1243;54.298;10.172;2023-04-03T16:45:44;6.60;99.90
2463;DHT22;1243;54.298;10.172;2023-04-03T16:48:09;6.70;99.90
2463;DHT22;1243;54.298;10.172;2023-04-03T16:50:36;6.80;99.90
2463;DHT22;1243;54.298;10.172;2023-04-03T16:53:01;6.90;99.90
2463;DHT22;1243;54.298;10.172;2023-04-03T16:55:28;6.70;99.90
2463;DHT22;1243;54.298;10.172;2023-04-03T16:57:54;6.50;99.90
2463;DHT22;1243;54.298;10.172;2023-04-03T17:00:20;6.40;99.90
2463;DHT22;1243;54.298;10.172;2023-04-03T17:02:46;6.40;99.90
2463;DHT22;1243;54.298;10.172;2023-04-03T17:05:12;6.40;99.90
2463;DHT22;1243;54.298;10.172;2023-04-03T17:07:38;6.20;99.90
2463;DHT22;1243;54.298;10.172;2023-04-03T17:10:04;6.10;99.90
2463;DHT22;1243;54.298;10.172;2023-04-03T17:12:30;6.10;99.90
2463;DHT22;1243;54.298;10.172;2023-04-03T17:14:56;6.10;99.90
2463;DHT22;1243;54.298;10.172;2023-04-03T17:17:23;6.10;99.90
2463;DHT22;1243;54.298;10.172;2023-04-03T17:19:50;6.00;99.90
2463;DHT22;1243;54.298;10.172;2023-04-03T17:22:16;6.10;99.90
2463;DHT22;1243;54.298;10.172;2023-04-03T17:24:43;6.00;99.90
2463;DHT22;1243;54.298;10.172;2023-04-03T17:27:09;5.90;99.90
2463;DHT22;1243;54.298;10.172;2023-04-03T17:29:35;5.90;99.90
2463;DHT22;1243;54.298;10.172;2023-04-03T17:32:00;5.80;99.90
2463;DHT22;1243;54.298;10.172;2023-04-03T17:34:26;5.80;99.90
2463;DHT22;1243;54.298;10.172;2023-04-03T17:36:52;5.80;99.90
2463;DHT22;1243;54.298;10.172;2023-04-03T17:39:18;5.70;99.90
2463;DHT22;1243;54.298;10.172;2023-04-03T17:41:44;5.70;99.90
2463;DHT22;1243;54.298;10.172;2023-04-03T17:44:14;5.60;99.90
2463;DHT22;1243;54.298;10.172;2023-04-03T17:46:39;5.50;99.90
2463;DHT22;1243;54.298;10.172;2023-04-03T17:49:05;5.40;99.90
2463;DHT22;1243;54.298;10.172;2023-04-03T17:51:31;5.30;99.90
2463;DHT22;1243;54.298;10.172;2023-04-03T17:53:59;5.20;99.90
2463;DHT22;1243;54.298;10.172;2023-04-03T17:56:26;5.10;99.90
2463;DHT22;1243;54.298;10.172;2023-04-03T17:58:53;5.00;99.90
2463;DHT22;1243;54.298;10.172;2023-04-03T18:01:25;5.00;99.90
2463;DHT22;1243;54.298;10.172;2023-04-03T18:03:53;5.00;99.90
2463;DHT22;1243;54.298;10.172;2023-04-03T18:06:21;5.00;99.90
2463;DHT22;1243;54.298;10.172;2023-04-03T18:09:02;5.00;99.90
2463;DHT22;1243;54.298;10.172;2023-04-03T18:11:29;5.00;99.90
2463;DHT22;1243;54.298;10.172;2023-04-03T18:13:57;5.00;99.90
2463;DHT22;1243;54.298;10.172;2023-04-03T18:16:24;4.90;99.90
2463;DHT22;1243;54.298;10.172;2023-04-03T18:18:50;4.80;99.90
2463;DHT22;1243;54.298;10.172;2023-04-03T18:21:16;4.80;99.90
2463;DHT22;1243;54.298;10.172;2023-04-03T18:23:50;4.80;99.90
2463;DHT22;1243;54.298;10.172;2023-04-03T18:26:17;4.60;99.90
2463;DHT22;1243;54.298;10.172;2023-04-03T18:28:46;4.50;99.90
2463;DHT22;1243;54.298;10.172;2023-04-03T18:31:14;4.40;99.90
2463;DHT22;1243;54.298;10.172;2023-04-03T18:33:42;4.40;99.90
2463;DHT22;1243;54.298;10.172;2023-04-03T18:36:08;4.30;99.90
2463;DHT22;1243;54.298;10.172;2023-04-03T18:38:34;4.20;99.90
2463;DHT22;1243;54.298;10.172;2023-04-03T18:41:00;4.10;99.90
2463;DHT22;1243;54.298;10.172;2023-04-03T18:43:28;4.10;99.90
2463;DHT22;1243;54.298;10.172;2023-04-03T18:45:54;4.00;99.90
2463;DHT22;1243;54.298;10.172;2023-04-03T18:48:20;3.90;99.90
2463;DHT22;1243;54.298;10.172;2023-04-03T18:50:47;3.90;99.90
2463;DHT22;1243;54.298;10.172;2023-04-03T18:53:13;3.80;99.90
2463;DHT22;1243;54.298;10.172;2023-04-03T18:55:39;3.80;99.90
2463;DHT22;1243;54.298;10.172;2023-04-03T18:58:04;3.70;99.90
2463;DHT22;1243;54.298;10.172;2023-04-03T19:00:30;3.70;99.90
2463;DHT22;1243;54.298;10.172;2023-04-03T19:02:57;3.60;99.90